Lobo

Go HERE for most recent data if this page is not up to date.

Jump to table bottom
Date/Time Temp deg F RH % 24 Hr Snow (in) Snow Depth (in) H2O (in)
08/17 05:00 47.9 54 "NAN" 0.2 0.00
08/17 04:00 48.9 51 "NAN" -0.2 0.00
08/17 03:00 49.0 52 "NAN" -0.2 0.00
08/17 02:00 48.9 51 "NAN" -0.6 0.00
08/17 01:00 50.0 50 "NAN" -0.7 0.00
08/17 00:00 50.5 48 "NAN" -0.8 0.00
08/16 23:00 52.2 44 "NAN" -0.2 0.00
08/16 22:00 53.1 40 "NAN" -0.5 0.00
08/16 21:00 54.2 37 "NAN" 0.2 0.00
08/16 20:00 54.4 39 "NAN" 0.8 0.00
08/16 19:00 55.5 42 "NAN" 0.0 0.00
08/16 18:00 58.0 36 "NAN" -0.2 0.00
08/16 17:00 57.8 31 "NAN" -0.4 0.00
08/16 16:00 57.3 34 "NAN" -1.2 0.00
08/16 15:00 56.8 35 "NAN" -1.1 0.00
08/16 14:00 56.1 37 "NAN" -0.9 0.00
08/16 13:00 55.0 39 "NAN" -0.0 0.00
08/16 12:00 53.5 36 "NAN" -8.0 0.00
08/16 11:00 51.1 41 "NAN" -8.0 0.00
08/16 10:00 48.8 41 "NAN" 8.4 0.00
08/16 09:00 46.9 47 "NAN" 0.3 0.00
08/16 08:00 44.4 59 "NAN" 0.3 0.00
08/16 07:00 43.0 60 "NAN" -7.1 0.00
08/16 06:00 42.6 56 "NAN" -7.4 0.00
08/16 05:00 44.0 60 "NAN" -0.0 0.00
08/16 04:00 43.2 63 "NAN" 0.2 0.00
08/16 03:00 44.0 61 "NAN" -7.9 0.00
08/16 02:00 44.7 58 "NAN" 0.3 0.00
08/16 01:00 45.5 62 "NAN" 0.2 0.00
08/16 00:00 45.5 57 "NAN" 0.4 0.00
.